sensor_id;sensor_type;location;lat;lon;timestamp;pressure;altitude;pressure_sealevel;temperature;humidity
40954;BME280;26686;50.130;8.710;2022-09-09T00:02:22;99639.72;;;18.79;65.17
40954;BME280;26686;50.130;8.710;2022-09-09T00:07:45;99632.22;;;18.74;65.13
40954;BME280;26686;50.130;8.710;2022-09-09T00:13:05;99629.13;;;18.77;65.28
40954;BME280;26686;50.130;8.710;2022-09-09T00:18:28;99625.53;;;18.70;65.77
40954;BME280;26686;50.130;8.710;2022-09-09T00:23:38;99631.25;;;18.60;66.07
40954;BME280;26686;50.130;8.710;2022-09-09T00:28:57;99633.25;;;18.36;67.18
40954;BME280;26686;50.130;8.710;2022-09-09T00:34:11;99627.59;;;18.31;67.64
40954;BME280;26686;50.130;8.710;2022-09-09T00:39:46;99617.00;;;18.30;67.69
40954;BME280;26686;50.130;8.710;2022-09-09T00:55:49;99627.53;;;18.25;68.91
40954;BME280;26686;50.130;8.710;2022-09-09T01:00:57;99629.66;;;18.29;68.69
40954;BME280;26686;50.130;8.710;2022-09-09T01:16:32;99625.22;;;17.77;70.41
40954;BME280;26686;50.130;8.710;2022-09-09T01:21:50;99625.22;;;17.77;70.83
40954;BME280;26686;50.130;8.710;2022-09-09T01:26:59;99632.16;;;17.86;70.18
40954;BME280;26686;50.130;8.710;2022-09-09T01:32:37;99631.66;;;17.91;70.44
40954;BME280;26686;50.130;8.710;2022-09-09T01:37:24;99624.47;;;17.83;70.76
40954;BME280;26686;50.130;8.710;2022-09-09T01:42:25;99623.09;;;17.87;71.36
40954;BME280;26686;50.130;8.710;2022-09-09T01:47:27;99623.09;;;17.87;71.32
40954;BME280;26686;50.130;8.710;2022-09-09T01:52:29;99624.22;;;17.93;71.42
40954;BME280;26686;50.130;8.710;2022-09-09T01:57:39;99618.00;;;17.92;71.13
40954;BME280;26686;50.130;8.710;2022-09-09T02:03:35;99616.03;;;17.86;71.61
40954;BME280;26686;50.130;8.710;2022-09-09T02:08:48;99620.75;;;17.84;71.19
40954;BME280;26686;50.130;8.710;2022-09-09T02:13:57;99619.22;;;17.90;71.77
40954;BME280;26686;50.130;8.710;2022-09-09T02:24:11;99634.53;;;17.89;71.78
40954;BME280;26686;50.130;8.710;2022-09-09T02:29:25;99638.25;;;18.03;71.21
40954;BME280;26686;50.130;8.710;2022-09-09T02:34:28;99636.66;;;17.94;71.22
40954;BME280;26686;50.130;8.710;2022-09-09T02:39:32;99639.25;;;17.87;72.01
40954;BME280;26686;50.130;8.710;2022-09-09T02:44:33;99648.16;;;18.02;71.42
40954;BME280;26686;50.130;8.710;2022-09-09T02:49:49;99637.13;;;17.97;72.03
40954;BME280;26686;50.130;8.710;2022-09-09T02:54:57;99638.69;;;18.07;71.52
40954;BME280;26686;50.130;8.710;2022-09-09T03:00:01;99633.56;;;18.12;71.61
40954;BME280;26686;50.130;8.710;2022-09-09T03:05:03;99634.50;;;18.04;71.14
40954;BME280;26686;50.130;8.710;2022-09-09T03:10:04;99625.44;;;17.90;71.60
40954;BME280;26686;50.130;8.710;2022-09-09T03:15:06;99639.44;;;18.00;71.84
40954;BME280;26686;50.130;8.710;2022-09-09T03:20:09;99626.16;;;17.84;72.23
40954;BME280;26686;50.130;8.710;2022-09-09T03:25:10;99610.63;;;17.71;73.41
40954;BME280;26686;50.130;8.710;2022-09-09T03:30:11;99623.00;;;17.65;73.46
40954;BME280;26686;50.130;8.710;2022-09-09T03:35:13;99616.88;;;17.87;73.39
40954;BME280;26686;50.130;8.710;2022-09-09T03:40:14;99624.84;;;17.80;72.96
40954;BME280;26686;50.130;8.710;2022-09-09T03:45:16;99630.16;;;17.73;73.28
40954;BME280;26686;50.130;8.710;2022-09-09T03:50:18;99628.84;;;17.69;73.94
40954;BME280;26686;50.130;8.710;2022-09-09T03:55:19;99631.63;;;17.76;73.53
40954;BME280;26686;50.130;8.710;2022-09-09T04:00:21;99617.63;;;17.65;73.73
40954;BME280;26686;50.130;8.710;2022-09-09T04:05:22;99610.38;;;17.51;74.53
40954;BME280;26686;50.130;8.710;2022-09-09T04:10:24;99614.16;;;17.42;75.04
40954;BME280;26686;50.130;8.710;2022-09-09T04:15:25;99613.50;;;17.55;74.59
40954;BME280;26686;50.130;8.710;2022-09-09T04:20:26;99609.91;;;17.47;74.43
40954;BME280;26686;50.130;8.710;2022-09-09T04:25:28;99626.56;;;17.43;74.55
40954;BME280;26686;50.130;8.710;2022-09-09T04:30:29;99606.66;;;17.37;75.08
40954;BME280;26686;50.130;8.710;2022-09-09T04:35:31;99608.69;;;17.50;75.38
40954;BME280;26686;50.130;8.710;2022-09-09T04:40:32;99602.22;;;17.44;75.02
40954;BME280;26686;50.130;8.710;2022-09-09T04:45:34;99612.22;;;17.36;75.51
40954;BME280;26686;50.130;8.710;2022-09-09T04:50:35;99595.03;;;17.37;75.63
40954;BME280;26686;50.130;8.710;2022-09-09T04:55:36;99606.47;;;17.39;75.26
40954;BME280;26686;50.130;8.710;2022-09-09T05:00:38;99615.91;;;17.35;75.65
40954;BME280;26686;50.130;8.710;2022-09-09T05:05:40;99621.94;;;17.37;75.36
40954;BME280;26686;50.130;8.710;2022-09-09T05:10:41;99628.72;;;17.33;76.15
40954;BME280;26686;50.130;8.710;2022-09-09T05:15:51;99636.69;;;17.41;75.18
40954;BME280;26686;50.130;8.710;2022-09-09T05:20:58;99637.84;;;17.23;75.73
40954;BME280;26686;50.130;8.710;2022-09-09T05:26:00;99653.47;;;17.28;75.78
40954;BME280;26686;50.130;8.710;2022-09-09T05:31:04;99656.34;;;17.26;76.29
40954;BME280;26686;50.130;8.710;2022-09-09T05:36:08;99669.06;;;17.33;76.26
40954;BME280;26686;50.130;8.710;2022-09-09T05:41:12;99659.56;;;17.22;76.53
40954;BME280;26686;50.130;8.710;2022-09-09T05:46:18;99669.25;;;17.31;76.11
40954;BME280;26686;50.130;8.710;2022-09-09T05:51:21;99670.25;;;17.30;76.70
40954;BME280;26686;50.130;8.710;2022-09-09T05:56:24;99688.91;;;17.31;76.53
40954;BME280;26686;50.130;8.710;2022-09-09T06:01:34;99691.00;;;17.21;77.12
40954;BME280;26686;50.130;8.710;2022-09-09T06:06:37;99683.94;;;17.20;77.17
40954;BME280;26686;50.130;8.710;2022-09-09T06:11:41;99690.00;;;17.22;77.00
40954;BME280;26686;50.130;8.710;2022-09-09T06:16:43;99693.56;;;17.38;76.18
40954;BME280;26686;50.130;8.710;2022-09-09T06:21:45;99690.25;;;17.51;75.37
40954;BME280;26686;50.130;8.710;2022-09-09T06:26:46;99689.75;;;17.47;75.49
40954;BME280;26686;50.130;8.710;2022-09-09T06:31:48;99687.88;;;17.71;74.28
40954;BME280;26686;50.130;8.710;2022-09-09T06:36:49;99685.19;;;17.71;74.59
40954;BME280;26686;50.130;8.710;2022-09-09T06:41:51;99690.88;;;17.91;73.23
40954;BME280;26686;50.130;8.710;2022-09-09T06:46:54;99690.25;;;18.04;72.58
40954;BME280;26686;50.130;8.710;2022-09-09T06:51:56;99700.44;;;18.23;72.29
40954;BME280;26686;50.130;8.710;2022-09-09T06:56:57;99708.72;;;18.22;71.74
40954;BME280;26686;50.130;8.710;2022-09-09T07:01:58;99707.50;;;18.24;72.37
40954;BME280;26686;50.130;8.710;2022-09-09T07:07:00;99696.41;;;18.49;71.30
40954;BME280;26686;50.130;8.710;2022-09-09T07:12:02;99691.06;;;18.70;70.02
40954;BME280;26686;50.130;8.710;2022-09-09T07:17:03;99699.56;;;18.52;69.95
40954;BME280;26686;50.130;8.710;2022-09-09T07:22:04;99696.91;;;18.37;70.27
40954;BME280;26686;50.130;8.710;2022-09-09T07:27:07;99715.97;;;18.36;70.77
40954;BME280;26686;50.130;8.710;2022-09-09T07:32:08;99703.41;;;18.28;70.88
40954;BME280;26686;50.130;8.710;2022-09-09T07:37:09;99707.13;;;18.27;70.62
40954;BME280;26686;50.130;8.710;2022-09-09T07:42:12;99711.09;;;18.46;70.00
40954;BME280;26686;50.130;8.710;2022-09-09T07:47:14;99705.81;;;18.53;70.15
40954;BME280;26686;50.130;8.710;2022-09-09T07:52:16;99710.34;;;18.52;69.45
40954;BME280;26686;50.130;8.710;2022-09-09T07:57:20;99719.69;;;18.71;68.99
40954;BME280;26686;50.130;8.710;2022-09-09T08:02:23;99733.94;;;18.50;69.76
40954;BME280;26686;50.130;8.710;2022-09-09T08:07:26;99745.41;;;18.37;70.41
40954;BME280;26686;50.130;8.710;2022-09-09T08:12:28;99754.31;;;18.38;70.74
40954;BME280;26686;50.130;8.710;2022-09-09T08:17:29;99739.81;;;18.54;70.32
40954;BME280;26686;50.130;8.710;2022-09-09T08:22:30;99744.25;;;18.92;69.04
40954;BME280;26686;50.130;8.710;2022-09-09T08:27:32;99751.31;;;19.14;67.81
40954;BME280;26686;50.130;8.710;2022-09-09T08:32:33;99749.44;;;19.36;66.82
40954;BME280;26686;50.130;8.710;2022-09-09T08:37:36;99742.44;;;19.64;65.11
40954;BME280;26686;50.130;8.710;2022-09-09T08:42:45;99747.72;;;20.00;63.30
40954;BME280;26686;50.130;8.710;2022-09-09T08:48:12;99754.31;;;20.26;62.32
40954;BME280;26686;50.130;8.710;2022-09-09T08:53:24;99737.69;;;20.29;63.20
40954;BME280;26686;50.130;8.710;2022-09-09T08:58:30;99745.41;;;20.32;63.19
40954;BME280;26686;50.130;8.710;2022-09-09T09:03:43;99734.91;;;19.81;63.66
40954;BME280;26686;50.130;8.710;2022-09-09T09:14:10;99720.28;;;19.75;62.80
40954;BME280;26686;50.130;8.710;2022-09-09T09:19:15;99725.63;;;19.90;62.92
40954;BME280;26686;50.130;8.710;2022-09-09T09:24:28;99723.81;;;19.97;62.72
40954;BME280;26686;50.130;8.710;2022-09-09T09:29:33;99723.19;;;19.73;63.95
40954;BME280;26686;50.130;8.710;2022-09-09T09:34:57;99720.44;;;19.67;65.33
40954;BME280;26686;50.130;8.710;2022-09-09T09:40:12;99725.50;;;19.76;63.95
40954;BME280;26686;50.130;8.710;2022-09-09T09:45:17;99729.75;;;19.64;63.65
40954;BME280;26686;50.130;8.710;2022-09-09T09:50:23;99723.75;;;19.40;64.10
40954;BME280;26686;50.130;8.710;2022-09-09T09:55:25;99732.66;;;19.41;65.59
40954;BME280;26686;50.130;8.710;2022-09-09T10:00:26;99728.81;;;19.29;68.25
40954;BME280;26686;50.130;8.710;2022-09-09T10:05:29;99721.47;;;19.66;67.76
40954;BME280;26686;50.130;8.710;2022-09-09T10:16:28;99723.28;;;21.18;63.03
40954;BME280;26686;50.130;8.710;2022-09-09T10:27:01;99702.56;;;25.56;48.77
40954;BME280;26686;50.130;8.710;2022-09-09T10:42:46;99694.06;;;27.10;44.36
40954;BME280;26686;50.130;8.710;2022-09-09T10:48:00;99690.78;;;24.04;51.57
40954;BME280;26686;50.130;8.710;2022-09-09T10:58:36;99682.09;;;21.63;60.60
40954;BME280;26686;50.130;8.710;2022-09-09T11:03:41;99694.97;;;21.14;65.48
40954;BME280;26686;50.130;8.710;2022-09-09T11:08:44;99692.03;;;21.36;65.45
40954;BME280;26686;50.130;8.710;2022-09-09T11:19:00;99674.47;;;32.17;35.81
40954;BME280;26686;50.130;8.710;2022-09-09T11:24:15;99679.16;;;29.23;40.78
40954;BME280;26686;50.130;8.710;2022-09-09T11:34:50;99693.03;;;29.17;38.52
40954;BME280;26686;50.130;8.710;2022-09-09T11:45:23;99674.59;;;31.65;35.83
40954;BME280;26686;50.130;8.710;2022-09-09T11:55:34;99663.00;;;31.73;31.11
40954;BME280;26686;50.130;8.710;2022-09-09T12:05:44;99673.53;;;24.47;43.24
40954;BME280;26686;50.130;8.710;2022-09-09T12:10:58;99677.16;;;23.60;48.10
40954;BME280;26686;50.130;8.710;2022-09-09T12:16:01;99682.75;;;27.35;41.28
40954;BME280;26686;50.130;8.710;2022-09-09T12:26:43;99668.97;;;25.20;44.33
40954;BME280;26686;50.130;8.710;2022-09-09T12:32:09;99659.59;;;24.74;44.27
40954;BME280;26686;50.130;8.710;2022-09-09T12:37:19;99659.31;;;23.71;45.89
40954;BME280;26686;50.130;8.710;2022-09-09T12:42:26;99644.84;;;22.69;47.99
40954;BME280;26686;50.130;8.710;2022-09-09T12:47:38;99658.81;;;22.21;49.88
40954;BME280;26686;50.130;8.710;2022-09-09T12:52:42;99694.38;;;21.73;51.73
40954;BME280;26686;50.130;8.710;2022-09-09T12:57:44;99720.66;;;19.65;68.42
40954;BME280;26686;50.130;8.710;2022-09-09T13:02:52;99682.19;;;19.35;72.37
40954;BME280;26686;50.130;8.710;2022-09-09T13:08:04;99683.81;;;19.86;72.80
40954;BME280;26686;50.130;8.710;2022-09-09T13:13:29;99680.94;;;20.29;73.12
40954;BME280;26686;50.130;8.710;2022-09-09T13:18:38;99659.44;;;20.56;73.42
40954;BME280;26686;50.130;8.710;2022-09-09T13:23:41;99676.38;;;20.78;71.05
40954;BME280;26686;50.130;8.710;2022-09-09T13:28:42;99680.13;;;20.83;64.82
40954;BME280;26686;50.130;8.710;2022-09-09T13:33:44;99687.03;;;20.99;67.35
40954;BME280;26686;50.130;8.710;2022-09-09T13:43:52;99674.78;;;21.37;59.08
40954;BME280;26686;50.130;8.710;2022-09-09T13:54:19;99660.09;;;22.05;53.80
40954;BME280;26686;50.130;8.710;2022-09-09T13:59:20;99656.78;;;22.03;53.33
40954;BME280;26686;50.130;8.710;2022-09-09T14:04:22;99658.06;;;21.94;53.50
40954;BME280;26686;50.130;8.710;2022-09-09T14:09:23;99684.31;;;22.00;53.43
40954;BME280;26686;50.130;8.710;2022-09-09T14:14:25;99676.22;;;21.46;53.89
40954;BME280;26686;50.130;8.710;2022-09-09T14:19:26;99684.16;;;21.28;55.08
40954;BME280;26686;50.130;8.710;2022-09-09T14:24:28;99675.59;;;21.17;55.01
40954;BME280;26686;50.130;8.710;2022-09-09T14:29:29;99670.97;;;20.84;55.83
40954;BME280;26686;50.130;8.710;2022-09-09T14:34:30;99674.09;;;20.88;56.41
40954;BME280;26686;50.130;8.710;2022-09-09T14:39:33;99665.16;;;20.81;56.36
40954;BME280;26686;50.130;8.710;2022-09-09T14:44:34;99659.75;;;20.88;57.65
40954;BME280;26686;50.130;8.710;2022-09-09T14:49:36;99649.75;;;20.81;57.37
40954;BME280;26686;50.130;8.710;2022-09-09T14:54:40;99644.06;;;20.63;58.21
40954;BME280;26686;50.130;8.710;2022-09-09T14:59:42;99633.47;;;20.61;58.00
40954;BME280;26686;50.130;8.710;2022-09-09T15:04:43;99625.59;;;20.66;58.60
40954;BME280;26686;50.130;8.710;2022-09-09T15:09:45;99634.28;;;20.62;58.64
40954;BME280;26686;50.130;8.710;2022-09-09T15:14:48;99633.00;;;20.58;58.55
40954;BME280;26686;50.130;8.710;2022-09-09T15:19:51;99635.09;;;20.62;57.55
40954;BME280;26686;50.130;8.710;2022-09-09T15:24:53;99650.88;;;20.45;57.42
40954;BME280;26686;50.130;8.710;2022-09-09T15:29:54;99635.88;;;20.36;57.72
40954;BME280;26686;50.130;8.710;2022-09-09T15:34:55;99644.44;;;20.53;57.53
40954;BME280;26686;50.130;8.710;2022-09-09T15:39:57;99634.47;;;20.60;56.74
40954;BME280;26686;50.130;8.710;2022-09-09T15:44:59;99643.41;;;20.61;57.48
40954;BME280;26686;50.130;8.710;2022-09-09T15:50:01;99647.56;;;20.50;57.81
40954;BME280;26686;50.130;8.710;2022-09-09T15:55:02;99662.06;;;20.36;58.67
40954;BME280;26686;50.130;8.710;2022-09-09T16:00:04;99659.28;;;20.16;59.04
40954;BME280;26686;50.130;8.710;2022-09-09T16:05:07;99657.38;;;20.09;60.00
40954;BME280;26686;50.130;8.710;2022-09-09T16:10:09;99667.56;;;20.07;59.65
40954;BME280;26686;50.130;8.710;2022-09-09T16:15:10;99677.47;;;20.00;60.00
40954;BME280;26686;50.130;8.710;2022-09-09T16:20:11;99665.13;;;19.84;61.12
40954;BME280;26686;50.130;8.710;2022-09-09T16:25:13;99670.72;;;19.83;61.40
40954;BME280;26686;50.130;8.710;2022-09-09T16:30:15;99670.38;;;19.64;61.99
40954;BME280;26686;50.130;8.710;2022-09-09T16:35:17;99660.78;;;19.61;62.15
40954;BME280;26686;50.130;8.710;2022-09-09T16:40:20;99662.41;;;19.56;62.65
40954;BME280;26686;50.130;8.710;2022-09-09T16:45:21;99657.78;;;19.50;61.79
40954;BME280;26686;50.130;8.710;2022-09-09T16:50:23;99666.25;;;19.40;62.31
40954;BME280;26686;50.130;8.710;2022-09-09T16:55:24;99663.88;;;19.30;63.39
40954;BME280;26686;50.130;8.710;2022-09-09T17:00:27;99675.91;;;19.28;64.32
40954;BME280;26686;50.130;8.710;2022-09-09T17:05:28;99674.13;;;19.13;65.74
40954;BME280;26686;50.130;8.710;2022-09-09T17:10:30;99679.44;;;19.06;66.45
40954;BME280;26686;50.130;8.710;2022-09-09T17:15:31;99683.94;;;18.99;67.26
40954;BME280;26686;50.130;8.710;2022-09-09T17:20:35;99692.44;;;18.96;67.90
40954;BME280;26686;50.130;8.710;2022-09-09T17:25:56;99695.88;;;18.90;68.30
40954;BME280;26686;50.130;8.710;2022-09-09T17:30:58;99694.84;;;18.91;69.19
40954;BME280;26686;50.130;8.710;2022-09-09T17:36:15;99698.41;;;18.92;70.08
40954;BME280;26686;50.130;8.710;2022-09-09T17:41:22;99694.09;;;18.82;70.53
40954;BME280;26686;50.130;8.710;2022-09-09T17:46:30;99694.09;;;18.82;70.06
40954;BME280;26686;50.130;8.710;2022-09-09T17:51:33;99691.59;;;18.81;69.60
40954;BME280;26686;50.130;8.710;2022-09-09T17:56:37;99698.41;;;18.77;69.85
40954;BME280;26686;50.130;8.710;2022-09-09T18:01:43;99705.00;;;18.74;70.12
40954;BME280;26686;50.130;8.710;2022-09-09T18:06:47;99710.13;;;18.69;71.18
40954;BME280;26686;50.130;8.710;2022-09-09T18:11:51;99724.91;;;18.73;70.15
40954;BME280;26686;50.130;8.710;2022-09-09T18:16:54;99722.97;;;18.67;71.25
40954;BME280;26686;50.130;8.710;2022-09-09T18:21:56;99729.56;;;18.64;71.28
40954;BME280;26686;50.130;8.710;2022-09-09T18:27:02;99739.25;;;18.59;71.41
40954;BME280;26686;50.130;8.710;2022-09-09T18:32:04;99749.69;;;18.47;72.12
40954;BME280;26686;50.130;8.710;2022-09-09T18:37:08;99745.22;;;18.24;73.10
40954;BME280;26686;50.130;8.710;2022-09-09T18:42:10;99748.38;;;18.28;73.51
40954;BME280;26686;50.130;8.710;2022-09-09T18:47:12;99757.28;;;18.28;73.53
40954;BME280;26686;50.130;8.710;2022-09-09T18:52:13;99770.13;;;18.26;73.56
40954;BME280;26686;50.130;8.710;2022-09-09T18:57:15;99770.94;;;18.27;73.29
40954;BME280;26686;50.130;8.710;2022-09-09T19:02:16;99781.00;;;18.18;73.83
40954;BME280;26686;50.130;8.710;2022-09-09T19:07:18;99786.19;;;18.19;73.41
40954;BME280;26686;50.130;8.710;2022-09-09T19:12:20;99793.50;;;18.11;73.90
40954;BME280;26686;50.130;8.710;2022-09-09T19:17:22;99794.38;;;17.88;74.14
40954;BME280;26686;50.130;8.710;2022-09-09T19:22:23;99807.16;;;17.86;73.68
40954;BME280;26686;50.130;8.710;2022-09-09T19:27:25;99813.09;;;17.81;73.92
40954;BME280;26686;50.130;8.710;2022-09-09T19:32:27;99817.81;;;17.56;74.72
40954;BME280;26686;50.130;8.710;2022-09-09T19:37:49;99819.78;;;17.47;76.74
40954;BME280;26686;50.130;8.710;2022-09-09T19:42:50;99816.28;;;17.39;76.83
40954;BME280;26686;50.130;8.710;2022-09-09T19:47:53;99821.69;;;17.39;77.49
40954;BME280;26686;50.130;8.710;2022-09-09T19:52:54;99818.06;;;17.23;78.29
40954;BME280;26686;50.130;8.710;2022-09-09T19:57:56;99808.38;;;17.14;80.05
40954;BME280;26686;50.130;8.710;2022-09-09T20:02:57;99795.81;;;17.06;79.94
40954;BME280;26686;50.130;8.710;2022-09-09T20:08:18;99806.25;;;17.01;80.73
40954;BME280;26686;50.130;8.710;2022-09-09T20:13:20;99812.28;;;17.03;80.98
40954;BME280;26686;50.130;8.710;2022-09-09T20:18:21;99823.63;;;16.90;80.53
40954;BME280;26686;50.130;8.710;2022-09-09T20:23:23;99808.50;;;16.81;81.09
40954;BME280;26686;50.130;8.710;2022-09-09T20:28:24;99805.28;;;16.86;81.77
40954;BME280;26686;50.130;8.710;2022-09-09T20:33:25;99805.13;;;16.95;81.54
40954;BME280;26686;50.130;8.710;2022-09-09T20:38:27;99800.25;;;16.83;81.98
40954;BME280;26686;50.130;8.710;2022-09-09T20:43:28;99793.38;;;16.88;82.90
40954;BME280;26686;50.130;8.710;2022-09-09T20:48:33;99798.97;;;16.78;80.76
40954;BME280;26686;50.130;8.710;2022-09-09T20:53:34;99804.88;;;16.66;82.41
40954;BME280;26686;50.130;8.710;2022-09-09T20:58:36;99808.22;;;16.68;81.42
40954;BME280;26686;50.130;8.710;2022-09-09T21:03:37;99804.25;;;16.55;82.08
40954;BME280;26686;50.130;8.710;2022-09-09T21:08:39;99807.91;;;16.63;81.36
40954;BME280;26686;50.130;8.710;2022-09-09T21:13:41;99809.63;;;16.55;81.62
40954;BME280;26686;50.130;8.710;2022-09-09T21:18:42;99813.66;;;16.51;82.46
40954;BME280;26686;50.130;8.710;2022-09-09T21:23:44;99814.25;;;16.22;83.90
40954;BME280;26686;50.130;8.710;2022-09-09T21:28:45;99812.06;;;16.09;85.70
40954;BME280;26686;50.130;8.710;2022-09-09T21:33:47;99832.53;;;16.26;85.09
40954;BME280;26686;50.130;8.710;2022-09-09T21:38:48;99833.66;;;16.40;84.69
40954;BME280;26686;50.130;8.710;2022-09-09T21:43:51;99845.09;;;16.42;84.81
40954;BME280;26686;50.130;8.710;2022-09-09T21:48:54;99839.59;;;16.28;84.37
40954;BME280;26686;50.130;8.710;2022-09-09T21:53:58;99846.47;;;16.22;85.71
40954;BME280;26686;50.130;8.710;2022-09-09T21:58:59;99846.59;;;16.29;84.99
40954;BME280;26686;50.130;8.710;2022-09-09T22:04:04;99851.03;;;16.05;85.65
40954;BME280;26686;50.130;8.710;2022-09-09T22:09:05;99848.31;;;16.13;86.15
40954;BME280;26686;50.130;8.710;2022-09-09T22:14:06;99852.03;;;16.04;86.31
40954;BME280;26686;50.130;8.710;2022-09-09T22:19:07;99842.13;;;15.88;86.67
40954;BME280;26686;50.130;8.710;2022-09-09T22:24:09;99859.03;;;15.72;87.60
40954;BME280;26686;50.130;8.710;2022-09-09T22:29:12;99838.56;;;15.71;88.38
40954;BME280;26686;50.130;8.710;2022-09-09T22:34:13;99836.56;;;15.73;87.83
40954;BME280;26686;50.130;8.710;2022-09-09T22:39:14;99842.13;;;15.80;87.42
40954;BME280;26686;50.130;8.710;2022-09-09T22:44:16;99840.75;;;15.76;87.74
40954;BME280;26686;50.130;8.710;2022-09-09T22:49:18;99846.47;;;15.72;88.39
40954;BME280;26686;50.130;8.710;2022-09-09T22:54:20;99842.59;;;15.67;88.51
40954;BME280;26686;50.130;8.710;2022-09-09T22:59:24;99834.03;;;15.71;89.09
40954;BME280;26686;50.130;8.710;2022-09-09T23:04:26;99836.88;;;15.70;88.67
40954;BME280;26686;50.130;8.710;2022-09-09T23:09:27;99819.47;;;15.66;88.42
40954;BME280;26686;50.130;8.710;2022-09-09T23:14:29;99843.63;;;15.66;89.02
40954;BME280;26686;50.130;8.710;2022-09-09T23:19:32;99838.09;;;15.67;89.71
40954;BME280;26686;50.130;8.710;2022-09-09T23:24:33;99843.50;;;15.84;88.46
40954;BME280;26686;50.130;8.710;2022-09-09T23:29:35;99834.56;;;15.83;88.42
40954;BME280;26686;50.130;8.710;2022-09-09T23:34:36;99843.97;;;16.04;87.53
40954;BME280;26686;50.130;8.710;2022-09-09T23:39:38;99846.31;;;15.99;87.47
40954;BME280;26686;50.130;8.710;2022-09-09T23:44:43;99849.50;;;16.11;87.04
40954;BME280;26686;50.130;8.710;2022-09-09T23:49:45;99842.63;;;16.00;87.18
40954;BME280;26686;50.130;8.710;2022-09-09T23:54:49;99838.59;;;15.96;87.41
40954;BME280;26686;50.130;8.710;2022-09-09T23:59:50;99835.91;;;15.96;87.83
